»·PEaware :: BADGR14 KFMN-KABQ

BADGR14 :: KFMN-KABQ

FLIGHT INFORMATION

Flight Status: Arrived
Operator: Unknown
More flights by this operator :: More flights under this callsign
Pilot: Jaydevsinh Z. (22218)
Aircraft: BEECH AIRCRAFT T-6A TEXAN
(TEX2)
More flights by this aircraft type
Origin: KFMN Four Corners Regl
United States
Destination: KABQ Albuquerque Intl Sunport
United States
More flights between these airports :: More routes between these airports
Route: RSK V187 TANER CURLY3
File this flight plan on PilotEdge
Remarks:
Altitude:
(Current/Filed)
13,000ft
Speed:
(Current/Filed)
258kts
Departed: 15-Jun-20 06:25 AM
Arrived: 15-Jun-20 07:02 AM
Distance/Time
Traveled:
0nm/0:36
Distance/Time
To Go:
Arrived

Flight Plot

Page will automatically refresh every two minutes.

Flight plan parsing failed; only flown route is shown


Map Options




Map Legend


Flown Route
Filed Route
Departure Airport
Arrival Airport
Navaid (VOR, NDB)
Fix

Horizontal Profiles

Position Reports

Time Latitude Longitude Heading Altitude Ground
Speed
15-Jun-20 06:02 36.739900 -108.226841 268 5507ft 0kts
15-Jun-20 06:03 36.739900 -108.226841 268 5507ft 0kts
15-Jun-20 06:04 36.739900 -108.226841 268 5507ft 0kts
15-Jun-20 06:05 36.739900 -108.226841 268 5507ft 0kts
15-Jun-20 06:06 36.739900 -108.226841 268 5507ft 0kts
15-Jun-20 06:07 36.739900 -108.226841 268 5507ft 0kts
15-Jun-20 06:08 36.739900 -108.226841 268 5507ft 0kts
15-Jun-20 06:09 36.739900 -108.226841 268 5507ft 0kts
15-Jun-20 06:10 36.739900 -108.226841 268 5507ft 0kts
15-Jun-20 06:11 36.739900 -108.226841 268 5507ft 0kts
15-Jun-20 06:12 36.739900 -108.226841 268 5507ft 0kts
15-Jun-20 06:13 36.739900 -108.226841 268 5507ft 0kts
15-Jun-20 06:14 36.739900 -108.226841 268 5507ft 0kts
15-Jun-20 06:15 36.739900 -108.226841 268 5507ft 0kts
15-Jun-20 06:16 36.739900 -108.226841 268 5507ft 0kts
15-Jun-20 06:17 36.739900 -108.226841 268 5507ft 0kts
15-Jun-20 06:18 36.739900 -108.226841 268 5507ft 0kts
15-Jun-20 06:20 36.739900 -108.226841 268 5507ft 0kts
15-Jun-20 06:21 36.740068 -108.226883 72 5507ft 6kts
15-Jun-20 06:22 36.740685 -108.223449 85 5507ft 13kts
15-Jun-20 06:23 36.740820 -108.218490 88 5507ft 0kts
15-Jun-20 06:24 36.741023 -108.217338 61 5507ft 9kts
15-Jun-20 06:25 36.740938 -108.243599 264 6154ft 172kts
15-Jun-20 06:26 36.703113 -108.232918 141 9376ft 190kts
15-Jun-20 06:27 36.671899 -108.174348 117 12556ft 224kts
15-Jun-20 06:28 36.636785 -108.095835 119 13261ft 294kts
15-Jun-20 06:29 36.599667 -108.002832 121 13217ft 294kts
15-Jun-20 06:30 36.542896 -107.932222 145 13306ft 283kts
15-Jun-20 06:31 36.477893 -107.876298 153 13227ft 283kts
15-Jun-20 06:32 36.409372 -107.829455 157 13245ft 280kts
15-Jun-20 06:33 36.344636 -107.775261 147 13238ft 284kts
15-Jun-20 06:34 36.280123 -107.718311 149 13222ft 283kts
15-Jun-20 06:35 36.213985 -107.665316 153 13225ft 281kts
15-Jun-20 06:36 36.145172 -107.618295 156 13168ft 282kts
15-Jun-20 06:36 36.086117 -107.582313 157 12891ft 283kts
15-Jun-20 06:38 36.008779 -107.521563 152 12942ft 280kts
15-Jun-20 06:39 35.939860 -107.475177 156 12974ft 280kts
15-Jun-20 06:39 35.883483 -107.428602 148 12976ft 284kts
15-Jun-20 06:41 35.805826 -107.360521 146 12925ft 286kts
15-Jun-20 06:41 35.750642 -107.309356 150 12894ft 283kts
15-Jun-20 06:42 35.682302 -107.260784 163 12946ft 278kts
15-Jun-20 06:43 35.612579 -107.219414 150 12945ft 282kts
15-Jun-20 06:44 35.546020 -107.166270 153 12971ft 280kts
15-Jun-20 06:45 35.479058 -107.117895 154 13001ft 282kts
15-Jun-20 06:46 35.411695 -107.067832 155 13020ft 281kts
15-Jun-20 06:47 35.342580 -107.024017 158 13013ft 281kts
15-Jun-20 06:48 35.272009 -106.982510 164 12919ft 281kts
15-Jun-20 06:49 35.195482 -106.974297 179 10519ft 280kts
15-Jun-20 06:50 35.117514 -106.969938 178 8458ft 279kts
15-Jun-20 06:51 35.045531 -106.966087 177 7507ft 230kts
15-Jun-20 06:52 34.980827 -106.963266 179 7503ft 235kts
15-Jun-20 06:53 34.915561 -106.961068 173 7483ft 236kts
15-Jun-20 06:54 34.876385 -106.900660 117 7388ft 232kts
15-Jun-20 06:55 34.882710 -106.826912 69 7395ft 230kts
15-Jun-20 06:56 34.914967 -106.761681 41 7414ft 224kts
15-Jun-20 06:57 34.948157 -106.720810 40 7337ft 133kts
15-Jun-20 06:58 34.973344 -106.690431 42 6683ft 121kts
15-Jun-20 06:59 34.998615 -106.658982 42 6030ft 136kts
15-Jun-20 07:00 35.024671 -106.627667 44 5308ft 110kts
15-Jun-20 07:01 35.034078 -106.617646 13 5309ft 0kts
15-Jun-20 07:02 35.034095 -106.617641 14 5309ft 1kts
15-Jun-20 07:03 35.036416 -106.616245 310 5313ft 12kts
15-Jun-20 07:04 35.037527 -106.616240 250 5311ft 0kts
15-Jun-20 07:05 35.037527 -106.616240 250 5311ft 0kts
15-Jun-20 07:06 35.037527 -106.616240 250 5311ft 0kts
15-Jun-20 07:07 36.739941 -108.224979 269 5507ft 0kts
15-Jun-20 07:08 36.739941 -108.224978 269 5507ft 0kts

Navigation Log

Ident Type
Flight plan parsing failed, navigation log unavailable